sensor_id;sensor_type;location;lat;lon;timestamp;temperature;humidity
82506;SHT30;72144;51.444;10.560;2023-12-28T00:01:07;6.43;84.56
82506;SHT30;72144;51.444;10.560;2023-12-28T00:03:33;6.47;84.55
82506;SHT30;72144;51.444;10.560;2023-12-28T00:05:58;6.47;84.53
82506;SHT30;72144;51.444;10.560;2023-12-28T00:08:23;6.47;84.60
82506;SHT30;72144;51.444;10.560;2023-12-28T00:10:49;6.45;84.58
82506;SHT30;72144;51.444;10.560;2023-12-28T00:13:14;6.47;84.55
82506;SHT30;72144;51.444;10.560;2023-12-28T00:15:40;6.47;84.49
82506;SHT30;72144;51.444;10.560;2023-12-28T00:18:05;6.47;84.53
82506;SHT30;72144;51.444;10.560;2023-12-28T00:20:30;6.47;84.48
82506;SHT30;72144;51.444;10.560;2023-12-28T00:22:56;6.47;84.37
82506;SHT30;72144;51.444;10.560;2023-12-28T00:25:23;6.51;84.42
82506;SHT30;72144;51.444;10.560;2023-12-28T00:27:48;6.48;84.32
82506;SHT30;72144;51.444;10.560;2023-12-28T00:30:14;6.48;84.32
82506;SHT30;72144;51.444;10.560;2023-12-28T00:32:42;6.51;84.35
82506;SHT30;72144;51.444;10.560;2023-12-28T00:35:09;6.50;84.39
82506;SHT30;72144;51.444;10.560;2023-12-28T00:37:34;6.53;84.32
82506;SHT30;72144;51.444;10.560;2023-12-28T00:40:00;6.53;84.29
82506;SHT30;72144;51.444;10.560;2023-12-28T00:42:25;6.50;84.22
82506;SHT30;72144;51.444;10.560;2023-12-28T00:44:50;6.51;84.21
82506;SHT30;72144;51.444;10.560;2023-12-28T00:47:17;6.53;84.24
82506;SHT30;72144;51.444;10.560;2023-12-28T00:49:43;6.53;84.26
82506;SHT30;72144;51.444;10.560;2023-12-28T00:52:08;6.54;84.29
82506;SHT30;72144;51.444;10.560;2023-12-28T00:54:35;6.53;84.26
82506;SHT30;72144;51.444;10.560;2023-12-28T00:57:03;6.53;84.13
82506;SHT30;72144;51.444;10.560;2023-12-28T00:59:28;6.57;84.19
82506;SHT30;72144;51.444;10.560;2023-12-28T01:01:55;6.54;84.23
82506;SHT30;72144;51.444;10.560;2023-12-28T01:04:20;6.57;84.26
82506;SHT30;72144;51.444;10.560;2023-12-28T01:06:48;6.57;84.15
82506;SHT30;72144;51.444;10.560;2023-12-28T01:09:13;6.58;84.30
82506;SHT30;72144;51.444;10.560;2023-12-28T01:11:39;6.60;84.26
82506;SHT30;72144;51.444;10.560;2023-12-28T01:14:04;6.58;84.23
82506;SHT30;72144;51.444;10.560;2023-12-28T01:16:30;6.60;84.04
82506;SHT30;72144;51.444;10.560;2023-12-28T01:18:55;6.60;84.14
82506;SHT30;72144;51.444;10.560;2023-12-28T01:21:20;6.60;84.19
82506;SHT30;72144;51.444;10.560;2023-12-28T01:23:46;6.61;84.38
82506;SHT30;72144;51.444;10.560;2023-12-28T01:26:13;6.61;84.31
82506;SHT30;72144;51.444;10.560;2023-12-28T01:28:40;6.64;84.30
82506;SHT30;72144;51.444;10.560;2023-12-28T01:31:05;6.64;84.32
82506;SHT30;72144;51.444;10.560;2023-12-28T01:33:30;6.63;84.32
82506;SHT30;72144;51.444;10.560;2023-12-28T01:35:56;6.67;84.37
82506;SHT30;72144;51.444;10.560;2023-12-28T01:38:21;6.68;84.31
82506;SHT30;72144;51.444;10.560;2023-12-28T01:40:47;6.68;84.16
82506;SHT30;72144;51.444;10.560;2023-12-28T01:43:12;6.70;84.15
82506;SHT30;72144;51.444;10.560;2023-12-28T01:45:37;6.72;84.20
82506;SHT30;72144;51.444;10.560;2023-12-28T01:48:03;6.74;84.22
82506;SHT30;72144;51.444;10.560;2023-12-28T01:50:30;6.75;84.31
82506;SHT30;72144;51.444;10.560;2023-12-28T01:52:58;6.78;84.27
82506;SHT30;72144;51.444;10.560;2023-12-28T01:55:24;6.79;84.26
82506;SHT30;72144;51.444;10.560;2023-12-28T01:57:51;6.81;84.33
82506;SHT30;72144;51.444;10.560;2023-12-28T02:00:16;6.82;84.35
82506;SHT30;72144;51.444;10.560;2023-12-28T02:02:42;6.82;84.36
82506;SHT30;72144;51.444;10.560;2023-12-28T02:05:10;6.85;84.37
82506;SHT30;72144;51.444;10.560;2023-12-28T02:07:36;6.87;84.47
82506;SHT30;72144;51.444;10.560;2023-12-28T02:10:01;6.87;84.42
82506;SHT30;72144;51.444;10.560;2023-12-28T02:12:27;6.91;84.47
82506;SHT30;72144;51.444;10.560;2023-12-28T02:14:52;6.91;84.55
82506;SHT30;72144;51.444;10.560;2023-12-28T02:17:34;6.93;84.41
82506;SHT30;72144;51.444;10.560;2023-12-28T02:20:01;6.93;84.69
82506;SHT30;72144;51.444;10.560;2023-12-28T02:22:32;6.93;84.59
82506;SHT30;72144;51.444;10.560;2023-12-28T02:27:26;6.96;84.72
82506;SHT30;72144;51.444;10.560;2023-12-28T02:29:51;6.96;84.83
82506;SHT30;72144;51.444;10.560;2023-12-28T02:32:20;6.96;84.56
82506;SHT30;72144;51.444;10.560;2023-12-28T02:34:50;6.98;84.68
82506;SHT30;72144;51.444;10.560;2023-12-28T02:37:20;6.96;84.77
82506;SHT30;72144;51.444;10.560;2023-12-28T02:39:47;6.99;84.79
82506;SHT30;72144;51.444;10.560;2023-12-28T02:42:13;7.00;84.80
82506;SHT30;72144;51.444;10.560;2023-12-28T02:44:38;6.99;84.80
82506;SHT30;72144;51.444;10.560;2023-12-28T02:47:04;7.00;84.92
82506;SHT30;72144;51.444;10.560;2023-12-28T02:49:29;6.98;84.89
82506;SHT30;72144;51.444;10.560;2023-12-28T02:51:55;6.98;84.89
82506;SHT30;72144;51.444;10.560;2023-12-28T02:54:20;7.00;84.92
82506;SHT30;72144;51.444;10.560;2023-12-28T02:56:45;7.00;84.96
82506;SHT30;72144;51.444;10.560;2023-12-28T02:59:11;7.00;84.99
82506;SHT30;72144;51.444;10.560;2023-12-28T03:01:36;7.02;84.97
82506;SHT30;72144;51.444;10.560;2023-12-28T03:04:01;7.03;85.05
82506;SHT30;72144;51.444;10.560;2023-12-28T03:06:27;7.03;85.02
82506;SHT30;72144;51.444;10.560;2023-12-28T03:08:52;7.02;85.11
82506;SHT30;72144;51.444;10.560;2023-12-28T03:11:17;7.02;85.17
82506;SHT30;72144;51.444;10.560;2023-12-28T03:13:43;7.02;85.13
82506;SHT30;72144;51.444;10.560;2023-12-28T03:16:08;7.02;85.05
82506;SHT30;72144;51.444;10.560;2023-12-28T03:18:33;7.03;85.10
82506;SHT30;72144;51.444;10.560;2023-12-28T03:20:59;7.02;85.11
82506;SHT30;72144;51.444;10.560;2023-12-28T03:23:25;7.02;85.18
82506;SHT30;72144;51.444;10.560;2023-12-28T03:25:50;7.05;85.22
82506;SHT30;72144;51.444;10.560;2023-12-28T03:28:15;7.02;85.27
82506;SHT30;72144;51.444;10.560;2023-12-28T03:30:41;7.02;85.31
82506;SHT30;72144;51.444;10.560;2023-12-28T03:33:07;7.03;85.35
82506;SHT30;72144;51.444;10.560;2023-12-28T03:35:32;7.02;85.35
82506;SHT30;72144;51.444;10.560;2023-12-28T03:37:57;7.05;85.35
82506;SHT30;72144;51.444;10.560;2023-12-28T03:40:23;7.03;85.35
82506;SHT30;72144;51.444;10.560;2023-12-28T03:42:48;7.06;85.36
82506;SHT30;72144;51.444;10.560;2023-12-28T03:45:14;7.05;85.35
82506;SHT30;72144;51.444;10.560;2023-12-28T03:47:39;7.06;85.29
82506;SHT30;72144;51.444;10.560;2023-12-28T03:50:05;7.09;85.28
82506;SHT30;72144;51.444;10.560;2023-12-28T03:52:31;7.06;85.27
82506;SHT30;72144;51.444;10.560;2023-12-28T03:54:57;7.09;85.28
82506;SHT30;72144;51.444;10.560;2023-12-28T03:57:22;7.10;85.27
82506;SHT30;72144;51.444;10.560;2023-12-28T03:59:48;7.09;85.27
82506;SHT30;72144;51.444;10.560;2023-12-28T04:02:13;7.07;85.27
82506;SHT30;72144;51.444;10.560;2023-12-28T04:04:39;7.15;85.28
82506;SHT30;72144;51.444;10.560;2023-12-28T04:07:05;7.13;85.36
82506;SHT30;72144;51.444;10.560;2023-12-28T04:09:33;7.12;85.39
82506;SHT30;72144;51.444;10.560;2023-12-28T04:11:59;7.15;85.29
82506;SHT30;72144;51.444;10.560;2023-12-28T04:14:24;7.13;85.26
82506;SHT30;72144;51.444;10.560;2023-12-28T04:16:50;7.15;85.21
82506;SHT30;72144;51.444;10.560;2023-12-28T04:19:15;7.15;85.19
82506;SHT30;72144;51.444;10.560;2023-12-28T04:21:43;7.13;85.17
82506;SHT30;72144;51.444;10.560;2023-12-28T04:24:09;7.17;85.24
82506;SHT30;72144;51.444;10.560;2023-12-28T04:26:34;7.16;85.22
82506;SHT30;72144;51.444;10.560;2023-12-28T04:28:59;7.17;85.18
82506;SHT30;72144;51.444;10.560;2023-12-28T04:31:25;7.17;85.12
82506;SHT30;72144;51.444;10.560;2023-12-28T04:33:50;7.15;85.16
82506;SHT30;72144;51.444;10.560;2023-12-28T04:36:16;7.16;85.19
82506;SHT30;72144;51.444;10.560;2023-12-28T04:38:41;7.17;85.21
82506;SHT30;72144;51.444;10.560;2023-12-28T04:41:06;7.13;85.18
82506;SHT30;72144;51.444;10.560;2023-12-28T04:43:32;7.17;85.15
82506;SHT30;72144;51.444;10.560;2023-12-28T04:45:57;7.19;85.14
82506;SHT30;72144;51.444;10.560;2023-12-28T04:48:27;7.17;85.12
82506;SHT30;72144;51.444;10.560;2023-12-28T04:50:52;7.16;85.20
82506;SHT30;72144;51.444;10.560;2023-12-28T04:53:18;7.15;85.20
82506;SHT30;72144;51.444;10.560;2023-12-28T04:55:43;7.17;85.18
82506;SHT30;72144;51.444;10.560;2023-12-28T04:58:10;7.16;85.22
82506;SHT30;72144;51.444;10.560;2023-12-28T05:00:37;7.17;85.13
82506;SHT30;72144;51.444;10.560;2023-12-28T05:03:02;7.15;85.11
82506;SHT30;72144;51.444;10.560;2023-12-28T05:05:27;7.15;85.08
82506;SHT30;72144;51.444;10.560;2023-12-28T05:07:53;7.17;85.14
82506;SHT30;72144;51.444;10.560;2023-12-28T05:10:18;7.19;85.12
82506;SHT30;72144;51.444;10.560;2023-12-28T05:12:43;7.19;85.12
82506;SHT30;72144;51.444;10.560;2023-12-28T05:15:09;7.17;85.20
82506;SHT30;72144;51.444;10.560;2023-12-28T05:17:34;7.17;85.22
82506;SHT30;72144;51.444;10.560;2023-12-28T05:20:00;7.16;85.22
82506;SHT30;72144;51.444;10.560;2023-12-28T05:22:25;7.19;85.24
82506;SHT30;72144;51.444;10.560;2023-12-28T05:24:51;7.19;85.32
82506;SHT30;72144;51.444;10.560;2023-12-28T05:27:16;7.20;85.38
82506;SHT30;72144;51.444;10.560;2023-12-28T05:29:41;7.20;85.39
82506;SHT30;72144;51.444;10.560;2023-12-28T05:32:07;7.23;85.36
82506;SHT30;72144;51.444;10.560;2023-12-28T05:34:32;7.19;85.44
82506;SHT30;72144;51.444;10.560;2023-12-28T05:36:57;7.22;85.45
82506;SHT30;72144;51.444;10.560;2023-12-28T05:39:23;7.22;85.44
82506;SHT30;72144;51.444;10.560;2023-12-28T05:41:48;7.20;85.44
82506;SHT30;72144;51.444;10.560;2023-12-28T05:44:15;7.22;85.50
82506;SHT30;72144;51.444;10.560;2023-12-28T05:46:41;7.20;85.51
82506;SHT30;72144;51.444;10.560;2023-12-28T05:49:06;7.22;85.49
82506;SHT30;72144;51.444;10.560;2023-12-28T05:51:41;7.20;85.50
82506;SHT30;72144;51.444;10.560;2023-12-28T05:54:07;7.23;85.61
82506;SHT30;72144;51.444;10.560;2023-12-28T05:56:33;7.23;85.61
82506;SHT30;72144;51.444;10.560;2023-12-28T05:58:58;7.22;85.54
82506;SHT30;72144;51.444;10.560;2023-12-28T06:01:24;7.20;85.54
82506;SHT30;72144;51.444;10.560;2023-12-28T06:03:49;7.22;85.57
82506;SHT30;72144;51.444;10.560;2023-12-28T06:06:15;7.20;85.58
82506;SHT30;72144;51.444;10.560;2023-12-28T06:08:41;7.22;85.58
82506;SHT30;72144;51.444;10.560;2023-12-28T06:11:07;7.24;85.58
82506;SHT30;72144;51.444;10.560;2023-12-28T06:13:32;7.22;85.57
82506;SHT30;72144;51.444;10.560;2023-12-28T06:15:57;7.24;85.62
82506;SHT30;72144;51.444;10.560;2023-12-28T06:18:23;7.20;85.59
82506;SHT30;72144;51.444;10.560;2023-12-28T06:20:48;7.23;85.62
82506;SHT30;72144;51.444;10.560;2023-12-28T06:23:13;7.22;85.57
82506;SHT30;72144;51.444;10.560;2023-12-28T06:25:39;7.23;85.61
82506;SHT30;72144;51.444;10.560;2023-12-28T06:28:04;7.22;85.61
82506;SHT30;72144;51.444;10.560;2023-12-28T06:30:30;7.23;85.65
82506;SHT30;72144;51.444;10.560;2023-12-28T06:32:55;7.20;85.65
82506;SHT30;72144;51.444;10.560;2023-12-28T06:35:20;7.20;85.62
82506;SHT30;72144;51.444;10.560;2023-12-28T06:37:46;7.22;85.66
82506;SHT30;72144;51.444;10.560;2023-12-28T06:40:11;7.19;85.63
82506;SHT30;72144;51.444;10.560;2023-12-28T06:42:37;7.22;85.60
82506;SHT30;72144;51.444;10.560;2023-12-28T06:45:02;7.20;85.59
82506;SHT30;72144;51.444;10.560;2023-12-28T06:47:28;7.19;85.59
82506;SHT30;72144;51.444;10.560;2023-12-28T06:49:53;7.17;85.58
82506;SHT30;72144;51.444;10.560;2023-12-28T06:52:19;7.16;85.59
82506;SHT30;72144;51.444;10.560;2023-12-28T06:54:44;7.17;85.56
82506;SHT30;72144;51.444;10.560;2023-12-28T06:57:09;7.17;85.60
82506;SHT30;72144;51.444;10.560;2023-12-28T06:59:35;7.19;85.52
82506;SHT30;72144;51.444;10.560;2023-12-28T07:02:00;7.15;85.51
82506;SHT30;72144;51.444;10.560;2023-12-28T07:04:25;7.15;85.54
82506;SHT30;72144;51.444;10.560;2023-12-28T07:06:54;7.16;85.54
82506;SHT30;72144;51.444;10.560;2023-12-28T07:09:20;7.15;85.53
82506;SHT30;72144;51.444;10.560;2023-12-28T07:11:45;7.15;85.50
82506;SHT30;72144;51.444;10.560;2023-12-28T07:14:11;7.15;85.52
82506;SHT30;72144;51.444;10.560;2023-12-28T07:16:36;7.16;85.57
82506;SHT30;72144;51.444;10.560;2023-12-28T07:19:01;7.15;85.53
82506;SHT30;72144;51.444;10.560;2023-12-28T07:21:27;7.13;85.52
82506;SHT30;72144;51.444;10.560;2023-12-28T07:23:52;7.13;85.54
82506;SHT30;72144;51.444;10.560;2023-12-28T07:26:17;7.15;85.52
82506;SHT30;72144;51.444;10.560;2023-12-28T07:28:43;7.15;85.56
82506;SHT30;72144;51.444;10.560;2023-12-28T07:31:10;7.16;85.53
82506;SHT30;72144;51.444;10.560;2023-12-28T07:33:35;7.13;85.49
82506;SHT30;72144;51.444;10.560;2023-12-28T07:36:01;7.12;85.56
82506;SHT30;72144;51.444;10.560;2023-12-28T07:38:28;7.12;85.54
82506;SHT30;72144;51.444;10.560;2023-12-28T07:40:53;7.13;85.53
82506;SHT30;72144;51.444;10.560;2023-12-28T07:43:19;7.12;85.53
82506;SHT30;72144;51.444;10.560;2023-12-28T07:45:44;7.09;85.53
82506;SHT30;72144;51.444;10.560;2023-12-28T07:48:09;7.10;85.51
82506;SHT30;72144;51.444;10.560;2023-12-28T07:50:34;7.09;85.60
82506;SHT30;72144;51.444;10.560;2023-12-28T07:53:00;7.10;85.68
82506;SHT30;72144;51.444;10.560;2023-12-28T07:55:25;7.13;85.67
82506;SHT30;72144;51.444;10.560;2023-12-28T07:57:51;7.10;85.63
82506;SHT30;72144;51.444;10.560;2023-12-28T08:00:17;7.12;85.57
82506;SHT30;72144;51.444;10.560;2023-12-28T08:02:42;7.07;85.53
82506;SHT30;72144;51.444;10.560;2023-12-28T08:05:08;7.10;85.50
82506;SHT30;72144;51.444;10.560;2023-12-28T08:07:34;7.07;85.52
82506;SHT30;72144;51.444;10.560;2023-12-28T08:10:00;7.09;85.57
82506;SHT30;72144;51.444;10.560;2023-12-28T08:12:25;7.13;85.58
82506;SHT30;72144;51.444;10.560;2023-12-28T08:14:53;7.12;85.67
82506;SHT30;72144;51.444;10.560;2023-12-28T08:17:19;7.10;85.73
82506;SHT30;72144;51.444;10.560;2023-12-28T08:19:44;7.12;85.76
82506;SHT30;72144;51.444;10.560;2023-12-28T08:22:09;7.15;85.78
82506;SHT30;72144;51.444;10.560;2023-12-28T08:24:35;7.12;85.79
82506;SHT30;72144;51.444;10.560;2023-12-28T08:27:01;7.15;85.78
82506;SHT30;72144;51.444;10.560;2023-12-28T08:29:28;7.15;85.78
82506;SHT30;72144;51.444;10.560;2023-12-28T08:31:53;7.15;85.77
82506;SHT30;72144;51.444;10.560;2023-12-28T08:34:20;7.16;85.79
82506;SHT30;72144;51.444;10.560;2023-12-28T08:36:46;7.15;85.76
82506;SHT30;72144;51.444;10.560;2023-12-28T08:39:11;7.16;85.78
82506;SHT30;72144;51.444;10.560;2023-12-28T08:41:37;7.17;85.83
82506;SHT30;72144;51.444;10.560;2023-12-28T08:44:02;7.19;85.84
82506;SHT30;72144;51.444;10.560;2023-12-28T08:46:27;7.17;85.84
82506;SHT30;72144;51.444;10.560;2023-12-28T08:48:54;7.19;85.88
82506;SHT30;72144;51.444;10.560;2023-12-28T08:51:19;7.16;85.92
82506;SHT30;72144;51.444;10.560;2023-12-28T08:53:45;7.20;85.90
82506;SHT30;72144;51.444;10.560;2023-12-28T08:56:19;7.22;85.84
82506;SHT30;72144;51.444;10.560;2023-12-28T08:58:45;7.22;85.92
82506;SHT30;72144;51.444;10.560;2023-12-28T09:01:19;7.22;85.91
82506;SHT30;72144;51.444;10.560;2023-12-28T09:03:51;7.20;85.88
82506;SHT30;72144;51.444;10.560;2023-12-28T09:06:17;7.24;85.91
82506;SHT30;72144;51.444;10.560;2023-12-28T09:08:43;7.24;85.94
82506;SHT30;72144;51.444;10.560;2023-12-28T09:11:11;7.23;85.90
82506;SHT30;72144;51.444;10.560;2023-12-28T09:13:37;7.24;85.97
82506;SHT30;72144;51.444;10.560;2023-12-28T09:16:03;7.23;86.01
82506;SHT30;72144;51.444;10.560;2023-12-28T09:18:28;7.23;86.03
82506;SHT30;72144;51.444;10.560;2023-12-28T09:20:54;7.26;85.92
82506;SHT30;72144;51.444;10.560;2023-12-28T09:23:20;7.27;85.94
82506;SHT30;72144;51.444;10.560;2023-12-28T09:25:45;7.27;85.96
82506;SHT30;72144;51.444;10.560;2023-12-28T09:28:11;7.26;86.01
82506;SHT30;72144;51.444;10.560;2023-12-28T09:30:36;7.26;85.94
82506;SHT30;72144;51.444;10.560;2023-12-28T09:33:02;7.26;85.94
82506;SHT30;72144;51.444;10.560;2023-12-28T09:35:27;7.27;85.96
82506;SHT30;72144;51.444;10.560;2023-12-28T09:37:52;7.26;86.02
82506;SHT30;72144;51.444;10.560;2023-12-28T09:40:19;7.30;86.03
82506;SHT30;72144;51.444;10.560;2023-12-28T09:43:01;7.28;86.06
82506;SHT30;72144;51.444;10.560;2023-12-28T09:45:28;7.30;86.09
82506;SHT30;72144;51.444;10.560;2023-12-28T09:47:53;7.31;86.12
82506;SHT30;72144;51.444;10.560;2023-12-28T09:50:18;7.31;86.18
82506;SHT30;72144;51.444;10.560;2023-12-28T09:52:45;7.33;86.19
82506;SHT30;72144;51.444;10.560;2023-12-28T09:55:10;7.35;86.24
82506;SHT30;72144;51.444;10.560;2023-12-28T09:57:36;7.33;86.25
82506;SHT30;72144;51.444;10.560;2023-12-28T10:00:03;7.37;86.25
82506;SHT30;72144;51.444;10.560;2023-12-28T10:02:30;7.35;86.32
82506;SHT30;72144;51.444;10.560;2023-12-28T10:04:55;7.41;86.38
82506;SHT30;72144;51.444;10.560;2023-12-28T10:07:21;7.41;86.45
82506;SHT30;72144;51.444;10.560;2023-12-28T10:09:46;7.43;86.50
82506;SHT30;72144;51.444;10.560;2023-12-28T10:12:11;7.44;86.57
82506;SHT30;72144;51.444;10.560;2023-12-28T10:14:37;7.47;86.58
82506;SHT30;72144;51.444;10.560;2023-12-28T10:17:02;7.48;86.60
82506;SHT30;72144;51.444;10.560;2023-12-28T10:19:27;7.48;86.70
82506;SHT30;72144;51.444;10.560;2023-12-28T10:21:53;7.55;86.70
82506;SHT30;72144;51.444;10.560;2023-12-28T10:24:18;7.57;86.70
82506;SHT30;72144;51.444;10.560;2023-12-28T10:26:44;7.58;86.73
82506;SHT30;72144;51.444;10.560;2023-12-28T10:29:09;7.61;86.73
82506;SHT30;72144;51.444;10.560;2023-12-28T10:31:35;7.65;86.71
82506;SHT30;72144;51.444;10.560;2023-12-28T10:34:00;7.65;86.67
82506;SHT30;72144;51.444;10.560;2023-12-28T10:36:28;7.71;86.62
82506;SHT30;72144;51.444;10.560;2023-12-28T10:38:54;7.75;86.57
82506;SHT30;72144;51.444;10.560;2023-12-28T10:41:19;7.75;86.54
82506;SHT30;72144;51.444;10.560;2023-12-28T10:46:23;7.81;86.36
82506;SHT30;72144;51.444;10.560;2023-12-28T10:48:53;7.86;86.34
82506;SHT30;72144;51.444;10.560;2023-12-28T10:51:23;7.89;86.38
82506;SHT30;72144;51.444;10.560;2023-12-28T10:56:42;7.97;86.26
82506;SHT30;72144;51.444;10.560;2023-12-28T11:01:42;8.06;86.20
82506;SHT30;72144;51.444;10.560;2023-12-28T11:06:39;8.13;86.11
82506;SHT30;72144;51.444;10.560;2023-12-28T11:09:06;8.19;86.00
82506;SHT30;72144;51.444;10.560;2023-12-28T11:11:33;8.23;86.02
82506;SHT30;72144;51.444;10.560;2023-12-28T11:14:01;8.26;85.98
82506;SHT30;72144;51.444;10.560;2023-12-28T11:16:28;8.29;85.90
82506;SHT30;72144;51.444;10.560;2023-12-28T11:18:55;8.36;85.88
82506;SHT30;72144;51.444;10.560;2023-12-28T11:21:21;8.40;85.84
82506;SHT30;72144;51.444;10.560;2023-12-28T11:23:47;8.44;85.74
82506;SHT30;72144;51.444;10.560;2023-12-28T11:26:20;8.48;85.66
82506;SHT30;72144;51.444;10.560;2023-12-28T11:28:46;8.52;85.56
82506;SHT30;72144;51.444;10.560;2023-12-28T11:31:15;8.57;85.46
82506;SHT30;72144;51.444;10.560;2023-12-28T11:33:45;8.59;85.43
82506;SHT30;72144;51.444;10.560;2023-12-28T11:36:11;8.66;85.40
82506;SHT30;72144;51.444;10.560;2023-12-28T11:38:38;8.69;85.38
82506;SHT30;72144;51.444;10.560;2023-12-28T11:41:05;8.69;85.38
82506;SHT30;72144;51.444;10.560;2023-12-28T11:43:34;8.72;85.33
82506;SHT30;72144;51.444;10.560;2023-12-28T11:46:00;8.76;85.29
82506;SHT30;72144;51.444;10.560;2023-12-28T11:48:27;8.80;85.33
82506;SHT30;72144;51.444;10.560;2023-12-28T11:50:54;8.82;85.38
82506;SHT30;72144;51.444;10.560;2023-12-28T11:53:20;8.90;85.43
82506;SHT30;72144;51.444;10.560;2023-12-28T11:55:46;8.92;85.25
82506;SHT30;72144;51.444;10.560;2023-12-28T11:58:11;8.94;85.12
82506;SHT30;72144;51.444;10.560;2023-12-28T12:00:37;8.96;85.12
82506;SHT30;72144;51.444;10.560;2023-12-28T12:03:02;9.02;85.12
82506;SHT30;72144;51.444;10.560;2023-12-28T12:05:28;9.04;85.23
82506;SHT30;72144;51.444;10.560;2023-12-28T12:07:54;9.07;85.20
82506;SHT30;72144;51.444;10.560;2023-12-28T12:10:19;9.09;85.14
82506;SHT30;72144;51.444;10.560;2023-12-28T12:12:46;9.13;85.21
82506;SHT30;72144;51.444;10.560;2023-12-28T12:15:12;9.19;85.25
82506;SHT30;72144;51.444;10.560;2023-12-28T12:17:38;9.20;85.23
82506;SHT30;72144;51.444;10.560;2023-12-28T12:20:04;9.23;85.10
82506;SHT30;72144;51.444;10.560;2023-12-28T12:22:31;9.27;84.94
82506;SHT30;72144;51.444;10.560;2023-12-28T12:24:59;9.31;85.10
82506;SHT30;72144;51.444;10.560;2023-12-28T12:27:25;9.31;85.03
82506;SHT30;72144;51.444;10.560;2023-12-28T12:29:50;9.37;84.89
82506;SHT30;72144;51.444;10.560;2023-12-28T12:32:16;9.39;85.04
82506;SHT30;72144;51.444;10.560;2023-12-28T12:34:42;9.41;84.98
82506;SHT30;72144;51.444;10.560;2023-12-28T12:37:07;9.44;84.88
82506;SHT30;72144;51.444;10.560;2023-12-28T12:39:32;9.47;84.96
82506;SHT30;72144;51.444;10.560;2023-12-28T12:41:58;9.51;84.80
82506;SHT30;72144;51.444;10.560;2023-12-28T12:44:23;9.54;84.70
82506;SHT30;72144;51.444;10.560;2023-12-28T12:46:56;9.56;84.69
82506;SHT30;72144;51.444;10.560;2023-12-28T12:49:23;9.58;84.75
82506;SHT30;72144;51.444;10.560;2023-12-28T12:51:48;9.59;85.02
82506;SHT30;72144;51.444;10.560;2023-12-28T12:54:17;9.59;84.93
82506;SHT30;72144;51.444;10.560;2023-12-28T12:56:43;9.59;84.94
82506;SHT30;72144;51.444;10.560;2023-12-28T12:59:10;9.58;84.94
82506;SHT30;72144;51.444;10.560;2023-12-28T13:01:41;9.59;84.76
82506;SHT30;72144;51.444;10.560;2023-12-28T13:04:06;9.58;84.69
82506;SHT30;72144;51.444;10.560;2023-12-28T13:06:32;9.58;84.64
82506;SHT30;72144;51.444;10.560;2023-12-28T13:08:57;9.55;84.54
82506;SHT30;72144;51.444;10.560;2023-12-28T13:11:23;9.54;84.61
82506;SHT30;72144;51.444;10.560;2023-12-28T13:13:51;9.55;84.60
82506;SHT30;72144;51.444;10.560;2023-12-28T13:16:17;9.54;84.58
82506;SHT30;72144;51.444;10.560;2023-12-28T13:18:42;9.51;84.64
82506;SHT30;72144;51.444;10.560;2023-12-28T13:21:08;9.49;84.71
82506;SHT30;72144;51.444;10.560;2023-12-28T13:23:33;9.47;84.64
82506;SHT30;72144;51.444;10.560;2023-12-28T13:25:58;9.45;83.73
82506;SHT30;72144;51.444;10.560;2023-12-28T13:28:24;9.44;84.27
82506;SHT30;72144;51.444;10.560;2023-12-28T13:30:49;9.44;84.34
82506;SHT30;72144;51.444;10.560;2023-12-28T13:33:16;9.42;84.30
82506;SHT30;72144;51.444;10.560;2023-12-28T13:35:42;9.39;84.37
82506;SHT30;72144;51.444;10.560;2023-12-28T13:38:07;9.39;84.40
82506;SHT30;72144;51.444;10.560;2023-12-28T13:40:33;9.42;84.42
82506;SHT30;72144;51.444;10.560;2023-12-28T13:42:58;9.39;84.48
82506;SHT30;72144;51.444;10.560;2023-12-28T13:45:24;9.41;84.47
82506;SHT30;72144;51.444;10.560;2023-12-28T13:47:49;9.39;84.34
82506;SHT30;72144;51.444;10.560;2023-12-28T13:50:15;9.39;84.34
82506;SHT30;72144;51.444;10.560;2023-12-28T13:52:40;9.42;84.31
82506;SHT30;72144;51.444;10.560;2023-12-28T13:55:06;9.41;83.96
82506;SHT30;72144;51.444;10.560;2023-12-28T13:57:32;9.41;84.25
82506;SHT30;72144;51.444;10.560;2023-12-28T13:59:57;9.41;84.30
82506;SHT30;72144;51.444;10.560;2023-12-28T14:02:26;9.38;84.32
82506;SHT30;72144;51.444;10.560;2023-12-28T14:04:51;9.38;84.33
82506;SHT30;72144;51.444;10.560;2023-12-28T14:07:18;9.38;84.37
82506;SHT30;72144;51.444;10.560;2023-12-28T14:09:44;9.37;84.28
82506;SHT30;72144;51.444;10.560;2023-12-28T14:12:09;9.37;84.12
82506;SHT30;72144;51.444;10.560;2023-12-28T14:14:34;9.35;84.27
82506;SHT30;72144;51.444;10.560;2023-12-28T14:17:00;9.32;84.18
82506;SHT30;72144;51.444;10.560;2023-12-28T14:19:25;9.30;83.96
82506;SHT30;72144;51.444;10.560;2023-12-28T14:21:51;9.28;84.03
82506;SHT30;72144;51.444;10.560;2023-12-28T14:24:16;9.28;84.11
82506;SHT30;72144;51.444;10.560;2023-12-28T14:26:42;9.27;84.19
82506;SHT30;72144;51.444;10.560;2023-12-28T14:29:09;9.26;84.27
82506;SHT30;72144;51.444;10.560;2023-12-28T14:31:35;9.24;84.33
82506;SHT30;72144;51.444;10.560;2023-12-28T14:34:01;9.21;84.45
82506;SHT30;72144;51.444;10.560;2023-12-28T14:36:33;9.21;84.38
82506;SHT30;72144;51.444;10.560;2023-12-28T14:39:00;9.20;84.48
82506;SHT30;72144;51.444;10.560;2023-12-28T14:41:26;9.20;84.28
82506;SHT30;72144;51.444;10.560;2023-12-28T14:43:52;9.16;84.40
82506;SHT30;72144;51.444;10.560;2023-12-28T14:46:18;9.13;84.46
82506;SHT30;72144;51.444;10.560;2023-12-28T14:48:43;9.11;84.49
82506;SHT30;72144;51.444;10.560;2023-12-28T14:51:09;9.09;84.29
82506;SHT30;72144;51.444;10.560;2023-12-28T14:53:34;9.07;84.26
82506;SHT30;72144;51.444;10.560;2023-12-28T14:55:59;9.02;84.36
82506;SHT30;72144;51.444;10.560;2023-12-28T14:58:25;9.04;84.41
82506;SHT30;72144;51.444;10.560;2023-12-28T15:00:52;9.00;84.49
82506;SHT30;72144;51.444;10.560;2023-12-28T15:03:18;8.99;84.40
82506;SHT30;72144;51.444;10.560;2023-12-28T15:05:43;8.96;84.53
82506;SHT30;72144;51.444;10.560;2023-12-28T15:08:08;8.96;84.44
82506;SHT30;72144;51.444;10.560;2023-12-28T15:10:35;8.92;84.45
82506;SHT30;72144;51.444;10.560;2023-12-28T15:13:01;8.93;84.42
82506;SHT30;72144;51.444;10.560;2023-12-28T15:15:28;8.90;84.33
82506;SHT30;72144;51.444;10.560;2023-12-28T15:17:54;8.87;84.29
82506;SHT30;72144;51.444;10.560;2023-12-28T15:20:19;8.83;84.24
82506;SHT30;72144;51.444;10.560;2023-12-28T15:22:45;8.83;84.29
82506;SHT30;72144;51.444;10.560;2023-12-28T15:25:10;8.82;84.32
82506;SHT30;72144;51.444;10.560;2023-12-28T15:27:37;8.77;84.37
82506;SHT30;72144;51.444;10.560;2023-12-28T15:30:03;8.76;84.26
82506;SHT30;72144;51.444;10.560;2023-12-28T15:32:31;8.75;84.23
82506;SHT30;72144;51.444;10.560;2023-12-28T15:34:56;8.73;84.30